Terminal Aerodrome Forecast
Issued by NWS Duluth, MN

Home | Current Version | Previous Version | Text Only | Print | Product List | Glossary On
Versions: 1 2 3 4 5 6 7 8 9 10 11 12 13 14 15 16 17 18
834
FTUS43 KDLH 090843 AAA
TAFDLH
TAF AMD
KDLH 090843Z 0909/1006 34012G20KT P6SM SCT018 BKN100
     FM091200 34012G20KT P6SM SCT080
     FM100100 34012KT P6SM SCT150=

USA.gov is the U.S. government's official web portal to all federal, state and local government web resources and services.